sensor_id;sensor_type;location;lat;lon;timestamp;pressure;altitude;pressure_sealevel;temperature;humidity
81224;BME280;70698;44.402;18.522;2024-01-30T00:02:21;99547.03;;;-2.22;86.27
81224;BME280;70698;44.402;18.522;2024-01-30T00:04:47;99543.19;;;-2.08;85.83
81224;BME280;70698;44.402;18.522;2024-01-30T00:07:12;99537.97;;;-2.05;85.99
81224;BME280;70698;44.402;18.522;2024-01-30T00:09:38;99544.03;;;-2.08;86.07
81224;BME280;70698;44.402;18.522;2024-01-30T00:12:05;99559.63;;;-2.12;84.71
81224;BME280;70698;44.402;18.522;2024-01-30T00:14:31;99559.06;;;-2.22;85.58
81224;BME280;70698;44.402;18.522;2024-01-30T00:16:57;99569.59;;;-2.30;85.48
81224;BME280;70698;44.402;18.522;2024-01-30T00:19:23;99575.31;;;-2.49;86.25
81224;BME280;70698;44.402;18.522;2024-01-30T00:21:48;99573.31;;;-2.71;86.23
81224;BME280;70698;44.402;18.522;2024-01-30T00:24:14;99569.13;;;-3.07;87.06
81224;BME280;70698;44.402;18.522;2024-01-30T00:26:40;99584.19;;;-3.27;88.32
81224;BME280;70698;44.402;18.522;2024-01-30T00:29:05;99571.06;;;-3.17;89.56
81224;BME280;70698;44.402;18.522;2024-01-30T00:31:31;99578.09;;;-2.89;90.40
81224;BME280;70698;44.402;18.522;2024-01-30T00:33:57;99576.06;;;-2.78;89.75
81224;BME280;70698;44.402;18.522;2024-01-30T00:36:22;99575.03;;;-2.71;88.68
81224;BME280;70698;44.402;18.522;2024-01-30T00:38:48;99580.44;;;-2.80;87.62
81224;BME280;70698;44.402;18.522;2024-01-30T00:41:14;99566.81;;;-3.18;87.51
81224;BME280;70698;44.402;18.522;2024-01-30T00:43:39;99541.94;;;-3.17;89.58
81224;BME280;70698;44.402;18.522;2024-01-30T00:46:05;99559.69;;;-3.07;89.73
81224;BME280;70698;44.402;18.522;2024-01-30T00:48:31;99567.94;;;-2.94;88.98
81224;BME280;70698;44.402;18.522;2024-01-30T00:50:56;99569.72;;;-2.97;88.96
81224;BME280;70698;44.402;18.522;2024-01-30T00:53:22;99568.41;;;-2.80;88.84
81224;BME280;70698;44.402;18.522;2024-01-30T00:55:48;99573.78;;;-2.89;88.61
81224;BME280;70698;44.402;18.522;2024-01-30T00:58:13;99564.19;;;-2.82;88.61
81224;BME280;70698;44.402;18.522;2024-01-30T01:00:40;99567.56;;;-2.80;88.70
81224;BME280;70698;44.402;18.522;2024-01-30T01:03:06;99562.81;;;-2.95;88.76
81224;BME280;70698;44.402;18.522;2024-01-30T01:05:31;99568.59;;;-2.87;89.46
81224;BME280;70698;44.402;18.522;2024-01-30T01:07:57;99566.75;;;-2.82;89.39
81224;BME280;70698;44.402;18.522;2024-01-30T01:10:22;99562.31;;;-2.77;88.78
81224;BME280;70698;44.402;18.522;2024-01-30T01:12:48;99573.00;;;-2.91;88.48
81224;BME280;70698;44.402;18.522;2024-01-30T01:15:15;99568.09;;;-3.00;89.21
81224;BME280;70698;44.402;18.522;2024-01-30T01:17:40;99576.31;;;-2.87;89.42
81224;BME280;70698;44.402;18.522;2024-01-30T01:20:07;99569.78;;;-2.99;88.36
81224;BME280;70698;44.402;18.522;2024-01-30T01:22:33;99576.56;;;-2.96;87.96
81224;BME280;70698;44.402;18.522;2024-01-30T01:25:00;99568.97;;;-3.01;88.08
81224;BME280;70698;44.402;18.522;2024-01-30T01:27:26;99566.78;;;-3.16;88.08
81224;BME280;70698;44.402;18.522;2024-01-30T01:29:52;99558.84;;;-3.09;88.86
81224;BME280;70698;44.402;18.522;2024-01-30T01:32:18;99566.66;;;-3.12;88.70
81224;BME280;70698;44.402;18.522;2024-01-30T01:34:44;99560.16;;;-2.92;89.71
81224;BME280;70698;44.402;18.522;2024-01-30T01:37:09;99557.69;;;-2.95;87.31
81224;BME280;70698;44.402;18.522;2024-01-30T01:39:35;99562.41;;;-3.13;87.90
81224;BME280;70698;44.402;18.522;2024-01-30T01:42:01;99547.94;;;-3.17;88.19
81224;BME280;70698;44.402;18.522;2024-01-30T01:44:27;99542.94;;;-3.23;89.02
81224;BME280;70698;44.402;18.522;2024-01-30T01:46:54;99557.97;;;-3.08;89.03
81224;BME280;70698;44.402;18.522;2024-01-30T01:49:29;99551.72;;;-2.97;88.67
81224;BME280;70698;44.402;18.522;2024-01-30T01:51:55;99541.25;;;-2.90;87.67
81224;BME280;70698;44.402;18.522;2024-01-30T01:54:22;99536.16;;;-2.93;87.59
81224;BME280;70698;44.402;18.522;2024-01-30T01:56:49;99545.78;;;-2.99;88.40
81224;BME280;70698;44.402;18.522;2024-01-30T01:59:17;99553.91;;;-2.84;88.59
81224;BME280;70698;44.402;18.522;2024-01-30T02:01:43;99545.41;;;-2.86;89.05
81224;BME280;70698;44.402;18.522;2024-01-30T02:04:11;99558.97;;;-2.79;88.06
81224;BME280;70698;44.402;18.522;2024-01-30T02:06:37;99554.44;;;-3.04;87.42
81224;BME280;70698;44.402;18.522;2024-01-30T02:09:03;99561.38;;;-3.39;88.12
81224;BME280;70698;44.402;18.522;2024-01-30T02:11:30;99562.75;;;-3.62;88.59
81224;BME280;70698;44.402;18.522;2024-01-30T02:13:56;99558.31;;;-3.55;88.95
81224;BME280;70698;44.402;18.522;2024-01-30T02:16:21;99564.19;;;-3.50;88.97
81224;BME280;70698;44.402;18.522;2024-01-30T02:18:47;99567.28;;;-3.36;89.13
81224;BME280;70698;44.402;18.522;2024-01-30T02:21:17;99561.63;;;-3.50;88.89
81224;BME280;70698;44.402;18.522;2024-01-30T02:23:44;99555.41;;;-3.41;88.58
81224;BME280;70698;44.402;18.522;2024-01-30T02:26:12;99571.22;;;-3.23;88.06
81224;BME280;70698;44.402;18.522;2024-01-30T02:28:37;99552.09;;;-3.45;88.30
81224;BME280;70698;44.402;18.522;2024-01-30T02:31:04;99579.00;;;-3.60;87.87
81224;BME280;70698;44.402;18.522;2024-01-30T02:33:29;99568.25;;;-3.78;89.22
81224;BME280;70698;44.402;18.522;2024-01-30T02:35:55;99579.13;;;-3.66;89.52
81224;BME280;70698;44.402;18.522;2024-01-30T02:38:21;99565.72;;;-3.43;89.94
81224;BME280;70698;44.402;18.522;2024-01-30T02:40:46;99573.50;;;-3.44;88.58
81224;BME280;70698;44.402;18.522;2024-01-30T02:43:12;99556.38;;;-3.45;88.95
81224;BME280;70698;44.402;18.522;2024-01-30T02:45:37;99577.69;;;-3.42;88.41
81224;BME280;70698;44.402;18.522;2024-01-30T02:48:03;99576.44;;;-3.61;89.10
81224;BME280;70698;44.402;18.522;2024-01-30T02:50:29;99579.94;;;-3.64;89.58
81224;BME280;70698;44.402;18.522;2024-01-30T02:52:55;99583.09;;;-3.53;89.22
81224;BME280;70698;44.402;18.522;2024-01-30T02:55:20;99574.88;;;-3.68;89.16
81224;BME280;70698;44.402;18.522;2024-01-30T02:57:46;99583.28;;;-3.60;90.10
81224;BME280;70698;44.402;18.522;2024-01-30T03:00:12;99567.91;;;-3.63;90.11
81224;BME280;70698;44.402;18.522;2024-01-30T03:02:38;99578.47;;;-3.38;90.01
81224;BME280;70698;44.402;18.522;2024-01-30T03:05:05;99559.72;;;-3.43;90.17
81224;BME280;70698;44.402;18.522;2024-01-30T03:07:31;99580.47;;;-3.50;89.12
81224;BME280;70698;44.402;18.522;2024-01-30T03:09:57;99562.22;;;-3.39;89.65
81224;BME280;70698;44.402;18.522;2024-01-30T03:12:22;99571.66;;;-3.39;87.64
81224;BME280;70698;44.402;18.522;2024-01-30T03:14:48;99579.66;;;-3.53;88.23
81224;BME280;70698;44.402;18.522;2024-01-30T03:17:14;99574.34;;;-3.44;89.08
81224;BME280;70698;44.402;18.522;2024-01-30T03:19:40;99569.47;;;-3.56;88.16
81224;BME280;70698;44.402;18.522;2024-01-30T03:22:06;99566.91;;;-3.56;88.26
81224;BME280;70698;44.402;18.522;2024-01-30T03:24:32;99561.88;;;-3.61;88.76
81224;BME280;70698;44.402;18.522;2024-01-30T03:26:57;99562.72;;;-3.60;88.73
81224;BME280;70698;44.402;18.522;2024-01-30T03:29:23;99574.84;;;-3.65;88.83
81224;BME280;70698;44.402;18.522;2024-01-30T03:31:49;99571.16;;;-3.55;87.91
81224;BME280;70698;44.402;18.522;2024-01-30T03:34:14;99557.44;;;-3.54;87.63
81224;BME280;70698;44.402;18.522;2024-01-30T03:36:40;99563.47;;;-3.55;88.13
81224;BME280;70698;44.402;18.522;2024-01-30T03:39:05;99561.75;;;-3.55;88.80
81224;BME280;70698;44.402;18.522;2024-01-30T03:41:31;99544.78;;;-3.63;88.56
81224;BME280;70698;44.402;18.522;2024-01-30T03:43:57;99555.25;;;-3.71;88.54
81224;BME280;70698;44.402;18.522;2024-01-30T03:46:23;99552.66;;;-3.69;89.36
81224;BME280;70698;44.402;18.522;2024-01-30T03:48:49;99543.28;;;-3.72;89.27
81224;BME280;70698;44.402;18.522;2024-01-30T03:51:14;99553.34;;;-3.63;88.69
81224;BME280;70698;44.402;18.522;2024-01-30T03:53:45;99555.59;;;-3.84;88.73
81224;BME280;70698;44.402;18.522;2024-01-30T03:56:13;99543.41;;;-3.78;89.26
81224;BME280;70698;44.402;18.522;2024-01-30T03:58:39;99557.38;;;-3.51;88.84
81224;BME280;70698;44.402;18.522;2024-01-30T04:01:05;99547.78;;;-3.81;88.49
81224;BME280;70698;44.402;18.522;2024-01-30T04:03:31;99553.88;;;-3.85;89.60
81224;BME280;70698;44.402;18.522;2024-01-30T04:05:56;99555.94;;;-4.00;89.55
81224;BME280;70698;44.402;18.522;2024-01-30T04:08:22;99560.25;;;-4.03;89.84
81224;BME280;70698;44.402;18.522;2024-01-30T04:10:47;99547.38;;;-4.00;90.45
81224;BME280;70698;44.402;18.522;2024-01-30T04:13:13;99566.72;;;-3.85;90.01
81224;BME280;70698;44.402;18.522;2024-01-30T04:15:39;99566.41;;;-3.72;89.16
81224;BME280;70698;44.402;18.522;2024-01-30T04:18:05;99569.28;;;-3.84;88.31
81224;BME280;70698;44.402;18.522;2024-01-30T04:20:31;99570.25;;;-3.89;89.40
81224;BME280;70698;44.402;18.522;2024-01-30T04:22:57;99563.41;;;-3.91;89.62
81224;BME280;70698;44.402;18.522;2024-01-30T04:25:22;99581.50;;;-3.58;89.26
81224;BME280;70698;44.402;18.522;2024-01-30T04:27:48;99547.91;;;-3.86;88.06
81224;BME280;70698;44.402;18.522;2024-01-30T04:30:14;99582.16;;;-3.87;89.11
81224;BME280;70698;44.402;18.522;2024-01-30T04:32:39;99590.66;;;-3.83;89.95
81224;BME280;70698;44.402;18.522;2024-01-30T04:35:05;99584.03;;;-3.57;90.62
81224;BME280;70698;44.402;18.522;2024-01-30T04:37:31;99580.31;;;-3.80;90.00
81224;BME280;70698;44.402;18.522;2024-01-30T04:39:57;99568.59;;;-3.92;90.37
81224;BME280;70698;44.402;18.522;2024-01-30T04:42:22;99571.22;;;-3.94;89.77
81224;BME280;70698;44.402;18.522;2024-01-30T04:44:48;99584.25;;;-3.66;90.26
81224;BME280;70698;44.402;18.522;2024-01-30T04:47:14;99579.56;;;-3.84;88.98
81224;BME280;70698;44.402;18.522;2024-01-30T04:49:39;99592.34;;;-3.82;87.74
81224;BME280;70698;44.402;18.522;2024-01-30T04:52:06;99584.41;;;-3.72;86.36
81224;BME280;70698;44.402;18.522;2024-01-30T04:54:32;99590.06;;;-3.95;86.85
81224;BME280;70698;44.402;18.522;2024-01-30T04:56:58;99596.94;;;-3.97;87.88
81224;BME280;70698;44.402;18.522;2024-01-30T04:59:24;99593.97;;;-3.78;88.02
81224;BME280;70698;44.402;18.522;2024-01-30T05:01:49;99589.78;;;-3.82;88.22
81224;BME280;70698;44.402;18.522;2024-01-30T05:04:15;99596.72;;;-3.87;87.94
81224;BME280;70698;44.402;18.522;2024-01-30T05:06:41;99588.03;;;-3.80;87.59
81224;BME280;70698;44.402;18.522;2024-01-30T05:09:06;99580.28;;;-3.79;88.31
81224;BME280;70698;44.402;18.522;2024-01-30T05:11:41;99593.91;;;-3.75;87.82
81224;BME280;70698;44.402;18.522;2024-01-30T05:14:08;99594.47;;;-4.01;88.09
81224;BME280;70698;44.402;18.522;2024-01-30T05:16:37;99591.94;;;-4.03;89.45
81224;BME280;70698;44.402;18.522;2024-01-30T05:19:02;99578.06;;;-3.94;90.03
81224;BME280;70698;44.402;18.522;2024-01-30T05:21:28;99591.56;;;-3.84;89.65
81224;BME280;70698;44.402;18.522;2024-01-30T05:23:54;99584.28;;;-4.04;88.94
81224;BME280;70698;44.402;18.522;2024-01-30T05:26:19;99588.19;;;-4.28;89.55
81224;BME280;70698;44.402;18.522;2024-01-30T05:28:45;99590.91;;;-4.36;90.29
81224;BME280;70698;44.402;18.522;2024-01-30T05:31:11;99575.34;;;-4.28;91.10
81224;BME280;70698;44.402;18.522;2024-01-30T05:33:36;99593.09;;;-4.17;90.69
81224;BME280;70698;44.402;18.522;2024-01-30T05:36:02;99580.47;;;-4.26;91.11
81224;BME280;70698;44.402;18.522;2024-01-30T05:38:28;99604.91;;;-4.09;90.24
81224;BME280;70698;44.402;18.522;2024-01-30T05:40:54;99607.41;;;-4.06;89.44
81224;BME280;70698;44.402;18.522;2024-01-30T05:43:20;99605.59;;;-4.01;89.85
81224;BME280;70698;44.402;18.522;2024-01-30T05:45:46;99581.97;;;-4.18;89.48
81224;BME280;70698;44.402;18.522;2024-01-30T05:48:11;99605.91;;;-4.16;89.41
81224;BME280;70698;44.402;18.522;2024-01-30T05:50:37;99597.28;;;-4.13;89.94
81224;BME280;70698;44.402;18.522;2024-01-30T05:53:03;99602.28;;;-4.07;89.26
81224;BME280;70698;44.402;18.522;2024-01-30T05:55:28;99593.09;;;-4.17;89.06
81224;BME280;70698;44.402;18.522;2024-01-30T05:57:54;99596.63;;;-4.23;90.22
81224;BME280;70698;44.402;18.522;2024-01-30T06:00:20;99606.00;;;-4.20;90.13
81224;BME280;70698;44.402;18.522;2024-01-30T06:02:45;99596.50;;;-4.17;90.03
81224;BME280;70698;44.402;18.522;2024-01-30T06:05:11;99590.53;;;-4.17;89.82
81224;BME280;70698;44.402;18.522;2024-01-30T06:07:36;99612.63;;;-4.09;89.81
81224;BME280;70698;44.402;18.522;2024-01-30T06:10:02;99604.22;;;-4.17;88.62
81224;BME280;70698;44.402;18.522;2024-01-30T06:12:28;99583.03;;;-4.28;89.06
81224;BME280;70698;44.402;18.522;2024-01-30T06:14:54;99600.78;;;-4.17;89.40
81224;BME280;70698;44.402;18.522;2024-01-30T06:17:22;99593.84;;;-4.12;90.37
81224;BME280;70698;44.402;18.522;2024-01-30T06:19:48;99600.53;;;-4.04;90.57
81224;BME280;70698;44.402;18.522;2024-01-30T06:22:14;99600.53;;;-4.04;89.13
81224;BME280;70698;44.402;18.522;2024-01-30T06:24:40;99583.03;;;-4.28;89.12
81224;BME280;70698;44.402;18.522;2024-01-30T06:27:05;99598.72;;;-3.99;89.91
81224;BME280;70698;44.402;18.522;2024-01-30T06:29:31;99575.72;;;-4.05;88.37
81224;BME280;70698;44.402;18.522;2024-01-30T06:31:57;99598.09;;;-4.10;88.62
81224;BME280;70698;44.402;18.522;2024-01-30T06:34:22;99591.44;;;-4.20;89.45
81224;BME280;70698;44.402;18.522;2024-01-30T06:36:48;99594.13;;;-4.24;90.28
81224;BME280;70698;44.402;18.522;2024-01-30T06:39:14;99599.84;;;-4.12;90.35
81224;BME280;70698;44.402;18.522;2024-01-30T06:41:39;99596.94;;;-4.38;89.53
81224;BME280;70698;44.402;18.522;2024-01-30T06:44:05;99596.34;;;-4.51;88.96
81224;BME280;70698;44.402;18.522;2024-01-30T06:46:32;99596.56;;;-4.63;90.12
81224;BME280;70698;44.402;18.522;2024-01-30T06:48:58;99583.50;;;-4.49;90.18
81224;BME280;70698;44.402;18.522;2024-01-30T06:51:23;99598.38;;;-4.23;90.26
81224;BME280;70698;44.402;18.522;2024-01-30T06:53:49;99601.91;;;-4.29;89.64
81224;BME280;70698;44.402;18.522;2024-01-30T06:56:15;99597.47;;;-4.22;87.99
81224;BME280;70698;44.402;18.522;2024-01-30T06:58:40;99608.06;;;-4.38;87.21
81224;BME280;70698;44.402;18.522;2024-01-30T07:01:06;99611.59;;;-4.43;88.43
81224;BME280;70698;44.402;18.522;2024-01-30T07:03:32;99613.25;;;-4.39;88.48
81224;BME280;70698;44.402;18.522;2024-01-30T07:05:57;99607.09;;;-4.32;88.39
81224;BME280;70698;44.402;18.522;2024-01-30T07:08:23;99606.16;;;-4.28;88.13
81224;BME280;70698;44.402;18.522;2024-01-30T07:10:48;99605.91;;;-4.16;89.03
81224;BME280;70698;44.402;18.522;2024-01-30T07:13:14;99607.50;;;-4.10;88.85
81224;BME280;70698;44.402;18.522;2024-01-30T07:15:42;99616.00;;;-4.07;87.88
81224;BME280;70698;44.402;18.522;2024-01-30T07:18:08;99615.75;;;-3.95;88.18
81224;BME280;70698;44.402;18.522;2024-01-30T07:20:35;99623.03;;;-3.76;88.30
81224;BME280;70698;44.402;18.522;2024-01-30T07:23:00;99624.19;;;-3.51;88.33
81224;BME280;70698;44.402;18.522;2024-01-30T07:25:26;99620.38;;;-3.35;88.84
81224;BME280;70698;44.402;18.522;2024-01-30T07:27:55;99617.88;;;-3.03;88.49
81224;BME280;70698;44.402;18.522;2024-01-30T07:30:21;99614.91;;;-2.87;87.16
81224;BME280;70698;44.402;18.522;2024-01-30T07:32:48;99617.81;;;-2.99;88.30
81224;BME280;70698;44.402;18.522;2024-01-30T07:35:14;99618.19;;;-2.81;87.41
81224;BME280;70698;44.402;18.522;2024-01-30T07:37:40;99615.38;;;-2.72;88.99
81224;BME280;70698;44.402;18.522;2024-01-30T07:40:06;99615.94;;;-2.61;88.46
81224;BME280;70698;44.402;18.522;2024-01-30T07:42:32;99618.81;;;-2.40;88.30
81224;BME280;70698;44.402;18.522;2024-01-30T07:44:59;99624.53;;;-2.29;87.09
81224;BME280;70698;44.402;18.522;2024-01-30T07:47:24;99622.28;;;-2.41;86.65
81224;BME280;70698;44.402;18.522;2024-01-30T07:49:50;99624.53;;;-2.29;87.75
81224;BME280;70698;44.402;18.522;2024-01-30T07:52:16;99613.78;;;-2.14;87.05
81224;BME280;70698;44.402;18.522;2024-01-30T07:54:42;99605.66;;;-2.30;87.02
81224;BME280;70698;44.402;18.522;2024-01-30T07:57:08;99619.16;;;-2.22;87.89
81224;BME280;70698;44.402;18.522;2024-01-30T07:59:33;99626.47;;;-2.08;88.17
81224;BME280;70698;44.402;18.522;2024-01-30T08:01:59;99619.16;;;-1.92;87.30
81224;BME280;70698;44.402;18.522;2024-01-30T08:04:25;99626.84;;;-1.61;87.32
81224;BME280;70698;44.402;18.522;2024-01-30T08:06:50;99610.59;;;-1.37;86.88
81224;BME280;70698;44.402;18.522;2024-01-30T08:09:16;99606.56;;;-1.19;86.38
81224;BME280;70698;44.402;18.522;2024-01-30T08:11:41;99623.63;;;-0.89;86.31
81224;BME280;70698;44.402;18.522;2024-01-30T08:14:07;99625.72;;;-0.49;85.53
81224;BME280;70698;44.402;18.522;2024-01-30T08:16:33;99627.00;;;-0.13;83.08
81224;BME280;70698;44.402;18.522;2024-01-30T08:18:58;99618.06;;;-0.27;82.26
81224;BME280;70698;44.402;18.522;2024-01-30T08:21:24;99606.03;;;-0.28;82.16
81224;BME280;70698;44.402;18.522;2024-01-30T08:23:49;99604.06;;;0.02;81.33
81224;BME280;70698;44.402;18.522;2024-01-30T08:26:15;99617.91;;;0.46;80.07
81224;BME280;70698;44.402;18.522;2024-01-30T08:28:41;99613.53;;;0.48;79.36
81224;BME280;70698;44.402;18.522;2024-01-30T08:31:06;99619.84;;;0.62;77.98
81224;BME280;70698;44.402;18.522;2024-01-30T08:33:32;99614.13;;;0.76;76.91
81224;BME280;70698;44.402;18.522;2024-01-30T08:35:58;99612.94;;;1.05;75.85
81224;BME280;70698;44.402;18.522;2024-01-30T08:38:23;99611.19;;;1.05;77.18
81224;BME280;70698;44.402;18.522;2024-01-30T08:40:49;99612.50;;;1.15;77.86
81224;BME280;70698;44.402;18.522;2024-01-30T08:43:14;99600.78;;;1.07;77.35
81224;BME280;70698;44.402;18.522;2024-01-30T08:45:40;99613.16;;;1.41;76.72
81224;BME280;70698;44.402;18.522;2024-01-30T08:48:06;99612.75;;;1.50;76.69
81224;BME280;70698;44.402;18.522;2024-01-30T08:50:33;99610.97;;;1.70;76.53
81224;BME280;70698;44.402;18.522;2024-01-30T08:52:58;99600.31;;;1.97;75.27
81224;BME280;70698;44.402;18.522;2024-01-30T08:55:24;99602.22;;;2.12;74.80
81224;BME280;70698;44.402;18.522;2024-01-30T08:57:50;99598.06;;;2.27;74.42
81224;BME280;70698;44.402;18.522;2024-01-30T09:00:17;99592.25;;;2.22;73.55
81224;BME280;70698;44.402;18.522;2024-01-30T09:02:43;99600.09;;;2.39;72.71
81224;BME280;70698;44.402;18.522;2024-01-30T09:05:08;99596.22;;;2.47;72.02
81224;BME280;70698;44.402;18.522;2024-01-30T09:07:34;99591.78;;;2.68;72.08
81224;BME280;70698;44.402;18.522;2024-01-30T09:10:00;99580.66;;;2.83;70.47
81224;BME280;70698;44.402;18.522;2024-01-30T09:12:26;99577.50;;;2.94;68.88
81224;BME280;70698;44.402;18.522;2024-01-30T09:14:51;99588.94;;;3.09;67.99
81224;BME280;70698;44.402;18.522;2024-01-30T09:17:17;99583.88;;;3.23;67.76
81224;BME280;70698;44.402;18.522;2024-01-30T09:19:43;99586.84;;;3.32;67.96
81224;BME280;70698;44.402;18.522;2024-01-30T09:22:08;99585.53;;;3.58;67.32
81224;BME280;70698;44.402;18.522;2024-01-30T09:24:34;99578.88;;;3.53;66.21
81224;BME280;70698;44.402;18.522;2024-01-30T09:27:00;99590.66;;;3.75;65.22
81224;BME280;70698;44.402;18.522;2024-01-30T09:29:26;99589.19;;;3.87;65.98
81224;BME280;70698;44.402;18.522;2024-01-30T09:31:51;99594.84;;;4.11;65.16
81224;BME280;70698;44.402;18.522;2024-01-30T09:34:17;99596.25;;;4.01;65.27
81224;BME280;70698;44.402;18.522;2024-01-30T09:36:43;99590.66;;;4.08;65.51
81224;BME280;70698;44.402;18.522;2024-01-30T09:39:09;99582.09;;;4.22;64.28
81224;BME280;70698;44.402;18.522;2024-01-30T09:41:44;99592.75;;;4.49;64.47
81224;BME280;70698;44.402;18.522;2024-01-30T09:44:11;99586.28;;;4.56;62.97
81224;BME280;70698;44.402;18.522;2024-01-30T09:46:38;99588.69;;;4.74;63.90
81224;BME280;70698;44.402;18.522;2024-01-30T09:49:06;99588.34;;;4.81;61.83
81224;BME280;70698;44.402;18.522;2024-01-30T09:51:33;99587.69;;;4.93;61.69
81224;BME280;70698;44.402;18.522;2024-01-30T09:53:59;99582.56;;;4.75;62.19
81224;BME280;70698;44.402;18.522;2024-01-30T09:56:25;99582.97;;;4.84;61.26
81224;BME280;70698;44.402;18.522;2024-01-30T09:58:51;99567.91;;;4.89;60.41
81224;BME280;70698;44.402;18.522;2024-01-30T10:01:17;99579.34;;;5.02;58.71
81224;BME280;70698;44.402;18.522;2024-01-30T10:03:44;99581.25;;;5.28;59.05
81224;BME280;70698;44.402;18.522;2024-01-30T10:06:10;99570.34;;;5.22;59.66
81224;BME280;70698;44.402;18.522;2024-01-30T10:08:37;99566.34;;;5.16;60.26
81224;BME280;70698;44.402;18.522;2024-01-30T10:11:03;99553.63;;;5.54;59.98
81224;BME280;70698;44.402;18.522;2024-01-30T10:13:29;99564.38;;;5.92;56.66
81224;BME280;70698;44.402;18.522;2024-01-30T10:15:55;99559.03;;;6.22;55.49
81224;BME280;70698;44.402;18.522;2024-01-30T10:18:25;99543.16;;;6.25;52.75
81224;BME280;70698;44.402;18.522;2024-01-30T10:20:51;99533.06;;;6.60;54.39
81224;BME280;70698;44.402;18.522;2024-01-30T10:23:17;99533.13;;;6.72;53.22
81224;BME280;70698;44.402;18.522;2024-01-30T10:25:44;99529.00;;;6.95;53.24
81224;BME280;70698;44.402;18.522;2024-01-30T10:28:10;99514.91;;;7.10;49.87
81224;BME280;70698;44.402;18.522;2024-01-30T10:30:36;99525.53;;;6.95;50.50
81224;BME280;70698;44.402;18.522;2024-01-30T10:33:01;99523.59;;;7.23;52.85
81224;BME280;70698;44.402;18.522;2024-01-30T10:35:27;99522.84;;;7.09;51.98
81224;BME280;70698;44.402;18.522;2024-01-30T10:37:56;99512.59;;;7.18;50.81
81224;BME280;70698;44.402;18.522;2024-01-30T10:40:29;99511.47;;;7.35;49.29
81224;BME280;70698;44.402;18.522;2024-01-30T10:42:56;99515.22;;;8.31;47.04
81224;BME280;70698;44.402;18.522;2024-01-30T10:45:25;99506.47;;;7.94;48.65
81224;BME280;70698;44.402;18.522;2024-01-30T10:47:54;99499.00;;;7.13;50.37
81224;BME280;70698;44.402;18.522;2024-01-30T10:50:26;99495.75;;;7.22;51.37
81224;BME280;70698;44.402;18.522;2024-01-30T10:52:53;99492.31;;;7.47;49.83
81224;BME280;70698;44.402;18.522;2024-01-30T10:55:21;99488.56;;;7.51;50.54
81224;BME280;70698;44.402;18.522;2024-01-30T10:57:48;99485.31;;;8.57;46.51
81224;BME280;70698;44.402;18.522;2024-01-30T11:00:14;99483.84;;;8.77;46.60
81224;BME280;70698;44.402;18.522;2024-01-30T11:02:45;99482.59;;;8.22;47.13
81224;BME280;70698;44.402;18.522;2024-01-30T11:05:12;99468.13;;;8.29;49.60
81224;BME280;70698;44.402;18.522;2024-01-30T11:07:39;99480.25;;;8.43;47.28
81224;BME280;70698;44.402;18.522;2024-01-30T11:10:08;99455.50;;;8.47;45.94
81224;BME280;70698;44.402;18.522;2024-01-30T11:12:39;99473.78;;;8.59;44.86
81224;BME280;70698;44.402;18.522;2024-01-30T11:15:11;99472.59;;;8.63;44.18
81224;BME280;70698;44.402;18.522;2024-01-30T11:20:26;99471.97;;;7.76;44.48
81224;BME280;70698;44.402;18.522;2024-01-30T11:22:53;99468.09;;;7.69;45.59
81224;BME280;70698;44.402;18.522;2024-01-30T11:25:21;99442.69;;;8.55;44.51
81224;BME280;70698;44.402;18.522;2024-01-30T11:27:49;99453.06;;;8.68;44.46
81224;BME280;70698;44.402;18.522;2024-01-30T11:30:24;99454.97;;;9.00;44.51
81224;BME280;70698;44.402;18.522;2024-01-30T11:33:00;99447.63;;;8.82;43.18
81224;BME280;70698;44.402;18.522;2024-01-30T11:35:30;99447.69;;;9.04;43.65
81224;BME280;70698;44.402;18.522;2024-01-30T11:37:57;99444.94;;;9.17;44.15
81224;BME280;70698;44.402;18.522;2024-01-30T11:40:23;99448.75;;;8.90;42.27
81224;BME280;70698;44.402;18.522;2024-01-30T11:42:51;99448.91;;;8.65;43.12
81224;BME280;70698;44.402;18.522;2024-01-30T11:45:17;99440.44;;;8.73;43.05
81224;BME280;70698;44.402;18.522;2024-01-30T11:47:43;99442.56;;;9.14;42.97
81224;BME280;70698;44.402;18.522;2024-01-30T11:50:09;99425.94;;;8.80;42.95
81224;BME280;70698;44.402;18.522;2024-01-30T11:52:36;99431.13;;;9.15;43.49
81224;BME280;70698;44.402;18.522;2024-01-30T11:55:02;99430.56;;;9.44;43.94
81224;BME280;70698;44.402;18.522;2024-01-30T11:57:28;99428.03;;;9.32;43.45
81224;BME280;70698;44.402;18.522;2024-01-30T11:59:54;99432.00;;;9.26;43.95
81224;BME280;70698;44.402;18.522;2024-01-30T12:02:19;99418.00;;;9.37;43.37
81224;BME280;70698;44.402;18.522;2024-01-30T12:04:45;99414.81;;;9.11;43.60
81224;BME280;70698;44.402;18.522;2024-01-30T12:07:11;99413.63;;;9.15;43.61
81224;BME280;70698;44.402;18.522;2024-01-30T12:09:38;99403.72;;;9.30;43.09
81224;BME280;70698;44.402;18.522;2024-01-30T12:12:04;99412.75;;;9.37;41.83
81224;BME280;70698;44.402;18.522;2024-01-30T12:14:31;99404.19;;;9.46;41.75
81224;BME280;70698;44.402;18.522;2024-01-30T12:16:56;99412.75;;;9.48;41.54
81224;BME280;70698;44.402;18.522;2024-01-30T12:19:25;99408.81;;;9.65;42.16
81224;BME280;70698;44.402;18.522;2024-01-30T12:21:57;99410.13;;;9.48;42.15
81224;BME280;70698;44.402;18.522;2024-01-30T12:24:27;99399.28;;;9.64;43.31
81224;BME280;70698;44.402;18.522;2024-01-30T12:26:59;99395.13;;;9.61;40.91
81224;BME280;70698;44.402;18.522;2024-01-30T12:29:24;99395.16;;;9.82;42.12
81224;BME280;70698;44.402;18.522;2024-01-30T12:31:53;99397.94;;;9.80;42.01
81224;BME280;70698;44.402;18.522;2024-01-30T12:34:19;99393.44;;;9.71;40.64
81224;BME280;70698;44.402;18.522;2024-01-30T12:36:47;99390.53;;;9.85;41.91
81224;BME280;70698;44.402;18.522;2024-01-30T12:39:14;99372.00;;;9.87;41.66
81224;BME280;70698;44.402;18.522;2024-01-30T12:41:40;99388.19;;;10.03;40.99
81224;BME280;70698;44.402;18.522;2024-01-30T12:44:07;99386.91;;;9.86;41.70
81224;BME280;70698;44.402;18.522;2024-01-30T12:46:34;99384.53;;;9.94;41.64
81224;BME280;70698;44.402;18.522;2024-01-30T12:49:00;99377.81;;;10.02;41.42
81224;BME280;70698;44.402;18.522;2024-01-30T12:51:26;99358.94;;;10.08;40.39